createdAt,value
2023-05-22T00:02:01.521Z,57.57
2023-05-22T00:07:21.674Z,57.52
2023-05-22T00:12:14.010Z,57.73
2023-05-22T00:17:14.169Z,57.92
2023-05-22T00:22:13.897Z,58.03
2023-05-22T00:27:13.863Z,58.13
2023-05-22T00:32:13.812Z,58.24
2023-05-22T00:37:13.701Z,58.36
2023-05-22T00:42:13.613Z,58.47
2023-05-22T00:47:13.601Z,58.58
2023-05-22T00:52:13.516Z,58.67
2023-05-22T00:57:13.428Z,58.77
2023-05-22T01:02:13.531Z,58.85
2023-05-22T01:07:13.315Z,58.93
2023-05-22T01:12:13.211Z,59.01
2023-05-22T01:17:13.177Z,59.13
2023-05-22T01:22:13.149Z,59.25
2023-05-22T01:27:13.102Z,59.35
2023-05-22T01:32:12.976Z,59.40
2023-05-22T01:37:12.914Z,59.51
2023-05-22T01:42:12.838Z,59.63
2023-05-22T01:47:12.796Z,59.73
2023-05-22T01:52:12.714Z,59.83
2023-05-22T01:57:12.697Z,59.94
2023-05-22T02:02:12.691Z,60.02
2023-05-22T02:07:12.662Z,60.11
2023-05-22T02:12:12.461Z,60.21
2023-05-22T02:17:12.389Z,60.29
2023-05-22T02:22:12.308Z,60.41
2023-05-22T02:27:12.237Z,60.50
2023-05-22T02:32:12.157Z,60.58
2023-05-22T02:37:12.139Z,60.65
2023-05-22T02:42:12.013Z,60.73
2023-05-22T02:47:12.030Z,60.77
2023-05-22T02:52:11.908Z,60.83
2023-05-22T02:57:11.829Z,60.96
2023-05-22T03:02:11.811Z,61.04
2023-05-22T03:07:11.761Z,61.11
2023-05-22T03:12:11.601Z,61.17
2023-05-22T03:17:11.589Z,61.23
2023-05-22T03:22:11.493Z,61.29
2023-05-22T03:27:11.432Z,61.36
2023-05-22T03:32:11.355Z,61.38
2023-05-22T03:37:11.320Z,61.43
2023-05-22T03:42:11.249Z,61.50
2023-05-22T03:47:11.181Z,61.55
2023-05-22T03:52:11.129Z,61.54
2023-05-22T03:57:11.146Z,61.52
2023-05-22T04:02:13.026Z,61.52
2023-05-22T04:07:10.919Z,61.51
2023-05-22T04:12:10.822Z,61.47
2023-05-22T04:17:23.060Z,61.32
2023-05-22T04:22:14.316Z,61.44
2023-05-22T04:27:14.286Z,61.45
2023-05-22T04:32:14.195Z,61.40
2023-05-22T04:37:14.113Z,61.26
2023-05-22T04:42:14.084Z,61.21
2023-05-22T04:47:13.982Z,61.09
2023-05-22T04:52:13.938Z,60.95
2023-05-22T04:57:13.857Z,60.75
2023-05-22T05:02:13.853Z,60.45
2023-05-22T05:07:13.771Z,60.27
2023-05-22T05:12:13.660Z,60.08
2023-05-22T05:17:13.578Z,59.85
2023-05-22T05:22:13.527Z,59.66
2023-05-22T05:27:13.442Z,59.47
2023-05-22T05:32:13.487Z,59.28
2023-05-22T05:37:13.332Z,59.01
2023-05-22T05:42:13.284Z,58.60
2023-05-22T05:47:13.175Z,58.21
2023-05-22T05:52:13.143Z,57.93
2023-05-22T05:57:13.056Z,58.00
2023-05-22T06:02:13.083Z,58.65
2023-05-22T06:07:12.984Z,58.76
2023-05-22T06:12:12.993Z,58.74
2023-05-22T06:17:12.795Z,58.66
2023-05-22T06:22:12.792Z,58.35
2023-05-22T06:27:12.709Z,58.48
2023-05-22T06:32:12.745Z,58.20
2023-05-22T06:37:12.571Z,58.11
2023-05-22T06:42:12.644Z,58.14
2023-05-22T06:47:12.415Z,58.78
2023-05-22T06:52:12.366Z,59.30
2023-05-22T06:57:12.300Z,59.65
2023-05-22T07:02:12.326Z,59.70
2023-05-22T07:07:12.140Z,59.57
2023-05-22T07:12:12.105Z,59.08
2023-05-22T07:17:12.013Z,58.74
2023-05-22T07:22:11.958Z,57.89
2023-05-22T07:27:11.949Z,57.23
2023-05-22T07:32:11.900Z,56.65
2023-05-22T07:37:11.778Z,54.92
2023-05-22T07:42:11.788Z,53.89
2023-05-22T07:47:11.603Z,52.31
2023-05-22T07:52:11.589Z,50.80
2023-05-22T07:57:11.438Z,50.63
2023-05-22T08:02:11.570Z,47.43
2023-05-22T08:07:11.341Z,46.60
2023-05-22T08:12:11.325Z,43.96
2023-05-22T08:17:11.244Z,44.71
2023-05-22T08:22:11.264Z,43.93
2023-05-22T08:27:11.053Z,42.17
2023-05-22T08:32:11.054Z,39.03
2023-05-22T08:37:10.978Z,38.33
2023-05-22T08:42:10.894Z,38.29
2023-05-22T08:47:10.871Z,39.44
2023-05-22T08:52:10.877Z,38.67
2023-05-22T08:57:10.691Z,37.01
2023-05-22T09:02:10.628Z,35.68
2023-05-22T09:07:10.816Z,33.79
2023-05-22T09:12:10.633Z,33.93
2023-05-22T09:17:10.575Z,34.05
2023-05-22T09:22:10.456Z,33.92
2023-05-22T09:27:10.344Z,34.11
2023-05-22T09:32:10.264Z,33.90
2023-05-22T09:37:10.190Z,34.33
2023-05-22T09:42:10.127Z,34.82
2023-05-22T09:47:10.080Z,35.04
2023-05-22T09:52:09.982Z,35.02
2023-05-22T09:57:09.928Z,34.40
2023-05-22T10:02:09.910Z,34.05
2023-05-22T10:07:09.780Z,33.53
2023-05-22T10:12:09.726Z,32.95
2023-05-22T10:17:09.661Z,32.03
2023-05-22T10:22:09.593Z,32.02
2023-05-22T10:27:09.528Z,31.52
2023-05-22T10:32:09.463Z,29.80
2023-05-22T10:37:16.678Z,28.70
2023-05-22T10:42:10.381Z,28.44
2023-05-22T10:47:09.256Z,28.13
2023-05-22T10:52:09.283Z,27.98
2023-05-22T10:57:09.153Z,27.75
2023-05-22T11:02:11.678Z,27.46
2023-05-22T11:07:09.034Z,27.60
2023-05-22T11:12:08.985Z,28.10
2023-05-22T11:17:09.672Z,28.60
2023-05-22T11:22:09.271Z,27.83
2023-05-22T11:27:08.767Z,27.78
2023-05-22T11:32:08.902Z,27.46
2023-05-22T11:37:08.656Z,27.67
2023-05-22T11:42:08.578Z,28.21
2023-05-22T11:47:08.570Z,28.68
2023-05-22T11:52:08.495Z,29.34
2023-05-22T11:57:08.684Z,29.64
2023-05-22T12:02:08.283Z,30.41
2023-05-22T12:07:08.252Z,30.93
2023-05-22T12:12:08.331Z,30.70
2023-05-22T12:17:08.212Z,30.64
2023-05-22T12:22:08.119Z,30.94
2023-05-22T12:27:07.990Z,31.35
2023-05-22T12:32:07.986Z,31.59
2023-05-22T12:37:07.958Z,31.90
2023-05-22T12:42:07.827Z,32.45
2023-05-22T12:47:07.753Z,32.36
2023-05-22T12:52:07.699Z,32.58
2023-05-22T12:57:07.654Z,32.98
2023-05-22T13:02:07.537Z,33.08
2023-05-22T13:07:07.682Z,32.90
2023-05-22T13:12:07.450Z,33.04
2023-05-22T13:17:07.343Z,33.07
2023-05-22T13:22:07.281Z,33.13
2023-05-22T13:27:07.236Z,33.26
2023-05-22T13:32:07.142Z,33.41
2023-05-22T13:37:07.115Z,33.75
2023-05-22T13:42:06.999Z,34.88
2023-05-22T13:47:06.996Z,35.12
2023-05-22T13:52:06.911Z,35.14
2023-05-22T13:57:06.922Z,35.03
2023-05-22T14:02:06.909Z,34.77
2023-05-22T14:07:06.809Z,35.20
2023-05-22T14:12:06.665Z,35.68
2023-05-22T14:17:06.699Z,35.72
2023-05-22T14:22:06.557Z,35.63
2023-05-22T14:27:06.463Z,35.83
2023-05-22T14:32:06.396Z,36.49
2023-05-22T14:37:06.332Z,36.38
2023-05-22T14:42:06.276Z,36.76
2023-05-22T14:47:06.204Z,37.67
2023-05-22T14:52:06.128Z,37.97
2023-05-22T14:57:06.171Z,37.61
2023-05-22T15:02:06.102Z,37.38
2023-05-22T15:07:05.958Z,37.50
2023-05-22T15:12:05.917Z,37.98
2023-05-22T15:17:05.833Z,38.79
2023-05-22T15:22:18.414Z,39.25
2023-05-22T15:27:06.703Z,39.72
2023-05-22T15:32:05.622Z,39.88
2023-05-22T15:37:05.642Z,39.99
2023-05-22T15:42:06.831Z,40.33
2023-05-22T15:47:05.486Z,40.69
2023-05-22T15:52:05.385Z,41.06
2023-05-22T15:57:05.268Z,41.29
2023-05-22T16:02:05.250Z,41.43
2023-05-22T16:07:05.151Z,41.45
2023-05-22T16:12:05.081Z,41.58
2023-05-22T16:17:05.064Z,41.78
2023-05-22T16:22:05.013Z,41.65
2023-05-22T16:27:04.891Z,41.60
2023-05-22T16:32:04.904Z,41.40
2023-05-22T16:37:04.760Z,41.34
2023-05-22T16:42:04.707Z,41.59
2023-05-22T16:47:04.757Z,42.28
2023-05-22T16:52:04.585Z,42.27
2023-05-22T16:57:04.577Z,42.62
2023-05-22T17:02:04.464Z,43.01
2023-05-22T17:07:04.361Z,43.32
2023-05-22T17:12:04.307Z,44.02
2023-05-22T17:17:04.221Z,44.48
2023-05-22T17:22:04.166Z,45.00
2023-05-22T17:27:04.110Z,45.51
2023-05-22T17:32:04.104Z,46.13
2023-05-22T17:37:03.969Z,46.61
2023-05-22T17:42:03.919Z,47.16
2023-05-22T17:47:03.852Z,47.55
2023-05-22T17:52:03.839Z,48.27
2023-05-22T17:57:03.712Z,48.92
2023-05-22T18:02:03.705Z,49.15
2023-05-22T18:07:03.575Z,49.52
2023-05-22T18:12:03.601Z,49.53
2023-05-22T18:17:03.457Z,49.54
2023-05-22T18:22:03.347Z,49.52
2023-05-22T18:27:03.646Z,49.78
2023-05-22T18:32:03.379Z,50.13
2023-05-22T18:37:03.203Z,50.33
2023-05-22T18:42:03.119Z,50.79
2023-05-22T18:47:15.305Z,51.01
2023-05-22T18:52:07.584Z,51.46
2023-05-22T18:57:07.548Z,51.94
2023-05-22T19:02:07.457Z,52.31
2023-05-22T19:07:07.486Z,52.61
2023-05-22T19:12:07.391Z,53.03
2023-05-22T19:17:07.559Z,53.32
2023-05-22T19:22:07.246Z,53.87
2023-05-22T19:27:07.173Z,54.37
2023-05-22T19:32:07.125Z,54.52
2023-05-22T19:37:07.035Z,54.83
2023-05-22T19:42:06.909Z,54.98
2023-05-22T19:47:06.858Z,55.12
2023-05-22T19:52:06.798Z,55.67
2023-05-22T19:57:06.707Z,56.02
2023-05-22T20:02:06.682Z,56.33
2023-05-22T20:07:06.556Z,56.84
2023-05-22T20:12:06.511Z,56.73
2023-05-22T20:17:06.528Z,56.74
2023-05-22T20:22:06.377Z,57.13
2023-05-22T20:27:06.404Z,57.00
2023-05-22T20:32:06.343Z,57.25
2023-05-22T20:37:06.204Z,57.50
2023-05-22T20:42:06.105Z,57.61
2023-05-22T20:47:06.073Z,57.66
2023-05-22T20:52:06.058Z,57.68
2023-05-22T20:57:05.936Z,57.77
2023-05-22T21:02:05.879Z,57.77
2023-05-22T21:07:05.794Z,57.81
2023-05-22T21:12:05.740Z,57.90
2023-05-22T21:17:05.777Z,57.94
2023-05-22T21:22:05.586Z,57.98
2023-05-22T21:27:05.583Z,58.20
2023-05-22T21:32:05.474Z,58.30
2023-05-22T21:37:05.399Z,58.43
2023-05-22T21:42:05.322Z,58.78
2023-05-22T21:47:05.268Z,59.03
2023-05-22T21:52:05.203Z,59.06
2023-05-22T21:57:05.165Z,59.28
2023-05-22T22:02:05.100Z,59.29
2023-05-22T22:07:05.010Z,59.30
2023-05-22T22:12:05.782Z,59.50
2023-05-22T22:17:04.905Z,59.58
2023-05-22T22:22:04.787Z,59.63
2023-05-22T22:27:04.744Z,59.67
2023-05-22T22:32:04.777Z,59.71
2023-05-22T22:37:04.614Z,59.78
2023-05-22T22:42:04.565Z,59.76
2023-05-22T22:47:04.487Z,59.71
2023-05-22T22:52:04.386Z,59.68
2023-05-22T22:57:04.364Z,59.58
2023-05-22T23:02:04.319Z,59.61
2023-05-22T23:07:04.235Z,59.77
2023-05-22T23:12:04.139Z,59.78
2023-05-22T23:17:04.080Z,59.98
2023-05-22T23:22:04.036Z,60.44
2023-05-22T23:27:03.991Z,60.30
2023-05-22T23:32:03.892Z,60.22
2023-05-22T23:37:03.891Z,60.34
2023-05-22T23:42:03.787Z,60.28
2023-05-22T23:47:03.779Z,60.26
2023-05-22T23:52:03.661Z,60.26
2023-05-22T23:57:03.547Z,60.26
